sensor_id;sensor_type;location;lat;lon;timestamp;temperature;humidity
73547;SHT30;61807;48.384;-4.386;2022-09-13T00:01:51;22.13;72.25
73547;SHT30;61807;48.384;-4.386;2022-09-13T00:04:17;22.24;71.89
73547;SHT30;61807;48.384;-4.386;2022-09-13T00:06:42;22.33;71.74
73547;SHT30;61807;48.384;-4.386;2022-09-13T00:09:07;22.37;71.56
73547;SHT30;61807;48.384;-4.386;2022-09-13T00:11:33;22.44;71.31
73547;SHT30;61807;48.384;-4.386;2022-09-13T00:13:58;22.51;71.17
73547;SHT30;61807;48.384;-4.386;2022-09-13T00:16:26;22.51;71.13
73547;SHT30;61807;48.384;-4.386;2022-09-13T00:18:53;22.54;71.21
73547;SHT30;61807;48.384;-4.386;2022-09-13T00:21:21;22.52;71.18
73547;SHT30;61807;48.384;-4.386;2022-09-13T00:23:49;22.58;71.09
73547;SHT30;61807;48.384;-4.386;2022-09-13T00:26:18;22.59;71.18
73547;SHT30;61807;48.384;-4.386;2022-09-13T00:28:43;22.58;71.06
73547;SHT30;61807;48.384;-4.386;2022-09-13T00:31:12;22.64;71.04
73547;SHT30;61807;48.384;-4.386;2022-09-13T00:33:38;22.62;70.96
73547;SHT30;61807;48.384;-4.386;2022-09-13T00:36:08;22.65;71.00
73547;SHT30;61807;48.384;-4.386;2022-09-13T00:38:35;22.69;71.15
73547;SHT30;61807;48.384;-4.386;2022-09-13T00:41:02;22.67;71.29
73547;SHT30;61807;48.384;-4.386;2022-09-13T00:43:52;22.61;71.54
73547;SHT30;61807;48.384;-4.386;2022-09-13T00:46:44;22.59;71.65
73547;SHT30;61807;48.384;-4.386;2022-09-13T00:49:13;22.57;71.77
73547;SHT30;61807;48.384;-4.386;2022-09-13T00:51:42;22.52;71.95
73547;SHT30;61807;48.384;-4.386;2022-09-13T00:54:10;22.50;72.05
73547;SHT30;61807;48.384;-4.386;2022-09-13T00:56:42;22.50;71.96
73547;SHT30;61807;48.384;-4.386;2022-09-13T00:59:14;22.50;72.09
73547;SHT30;61807;48.384;-4.386;2022-09-13T01:01:47;22.48;72.09
73547;SHT30;61807;48.384;-4.386;2022-09-13T01:04:14;22.50;71.98
73547;SHT30;61807;48.384;-4.386;2022-09-13T01:06:42;22.52;71.88
73547;SHT30;61807;48.384;-4.386;2022-09-13T01:09:10;22.55;71.75
73547;SHT30;61807;48.384;-4.386;2022-09-13T01:11:51;22.58;71.70
73547;SHT30;61807;48.384;-4.386;2022-09-13T01:14:21;22.61;71.69
73547;SHT30;61807;48.384;-4.386;2022-09-13T01:16:48;22.64;71.62
73547;SHT30;61807;48.384;-4.386;2022-09-13T01:19:13;22.65;71.59
73547;SHT30;61807;48.384;-4.386;2022-09-13T01:22:06;22.68;71.59
73547;SHT30;61807;48.384;-4.386;2022-09-13T01:39:05;22.88;70.79
73547;SHT30;61807;48.384;-4.386;2022-09-13T01:49:48;22.88;70.57
73547;SHT30;61807;48.384;-4.386;2022-09-13T01:52:29;22.88;70.64
73547;SHT30;61807;48.384;-4.386;2022-09-13T01:57:36;22.85;70.85
73547;SHT30;61807;48.384;-4.386;2022-09-13T02:00:08;22.81;71.08
73547;SHT30;61807;48.384;-4.386;2022-09-13T02:02:54;22.75;71.22
73547;SHT30;61807;48.384;-4.386;2022-09-13T02:05:23;22.71;71.23
73547;SHT30;61807;48.384;-4.386;2022-09-13T02:07:59;22.69;71.40
73547;SHT30;61807;48.384;-4.386;2022-09-13T02:10:34;22.69;71.39
73547;SHT30;61807;48.384;-4.386;2022-09-13T02:13:02;22.69;71.40
73547;SHT30;61807;48.384;-4.386;2022-09-13T02:15:40;22.67;71.51
73547;SHT30;61807;48.384;-4.386;2022-09-13T02:18:11;22.64;71.65
73547;SHT30;61807;48.384;-4.386;2022-09-13T02:20:42;22.59;71.63
73547;SHT30;61807;48.384;-4.386;2022-09-13T02:23:15;22.61;71.68
73547;SHT30;61807;48.384;-4.386;2022-09-13T02:25:43;22.57;71.80
73547;SHT30;61807;48.384;-4.386;2022-09-13T02:28:13;22.55;71.84
73547;SHT30;61807;48.384;-4.386;2022-09-13T02:30:42;22.54;71.92
73547;SHT30;61807;48.384;-4.386;2022-09-13T02:33:15;22.54;72.04
73547;SHT30;61807;48.384;-4.386;2022-09-13T02:36:00;22.50;72.06
73547;SHT30;61807;48.384;-4.386;2022-09-13T02:38:34;22.44;72.26
73547;SHT30;61807;48.384;-4.386;2022-09-13T02:44:21;22.43;72.34
73547;SHT30;61807;48.384;-4.386;2022-09-13T02:52:34;22.33;72.65
73547;SHT30;61807;48.384;-4.386;2022-09-13T02:57:55;22.34;72.84
73547;SHT30;61807;48.384;-4.386;2022-09-13T03:00:24;22.30;72.91
73547;SHT30;61807;48.384;-4.386;2022-09-13T03:02:50;22.31;72.93
73547;SHT30;61807;48.384;-4.386;2022-09-13T03:05:17;22.30;73.02
73547;SHT30;61807;48.384;-4.386;2022-09-13T03:07:43;22.29;73.05
73547;SHT30;61807;48.384;-4.386;2022-09-13T03:10:12;22.25;73.22
73547;SHT30;61807;48.384;-4.386;2022-09-13T03:26:40;22.18;73.52
73547;SHT30;61807;48.384;-4.386;2022-09-13T03:34:52;22.09;73.75
73547;SHT30;61807;48.384;-4.386;2022-09-13T03:37:29;22.07;73.90
73547;SHT30;61807;48.384;-4.386;2022-09-13T03:40:12;22.07;74.06
73547;SHT30;61807;48.384;-4.386;2022-09-13T03:42:56;22.04;73.97
73547;SHT30;61807;48.384;-4.386;2022-09-13T03:45:26;22.04;74.10
73547;SHT30;61807;48.384;-4.386;2022-09-13T03:47:53;22.03;74.22
73547;SHT30;61807;48.384;-4.386;2022-09-13T03:50:22;21.99;74.25
73547;SHT30;61807;48.384;-4.386;2022-09-13T03:52:59;21.97;74.31
73547;SHT30;61807;48.384;-4.386;2022-09-13T03:55:26;21.96;74.30
73547;SHT30;61807;48.384;-4.386;2022-09-13T03:57:51;21.96;74.44
73547;SHT30;61807;48.384;-4.386;2022-09-13T04:00:17;21.94;74.37
73547;SHT30;61807;48.384;-4.386;2022-09-13T04:02:43;21.96;74.37
73547;SHT30;61807;48.384;-4.386;2022-09-13T04:05:08;21.94;74.40
73547;SHT30;61807;48.384;-4.386;2022-09-13T04:07:34;21.96;74.43
73547;SHT30;61807;48.384;-4.386;2022-09-13T04:09:59;21.94;74.46
73547;SHT30;61807;48.384;-4.386;2022-09-13T04:12:25;21.94;74.47
73547;SHT30;61807;48.384;-4.386;2022-09-13T04:14:51;21.94;74.40
73547;SHT30;61807;48.384;-4.386;2022-09-13T04:17:16;21.94;74.42
73547;SHT30;61807;48.384;-4.386;2022-09-13T04:19:42;21.97;74.38
73547;SHT30;61807;48.384;-4.386;2022-09-13T04:22:09;21.97;74.38
73547;SHT30;61807;48.384;-4.386;2022-09-13T04:24:35;21.99;74.29
73547;SHT30;61807;48.384;-4.386;2022-09-13T04:27:01;21.99;74.31
73547;SHT30;61807;48.384;-4.386;2022-09-13T04:29:26;21.97;74.25
73547;SHT30;61807;48.384;-4.386;2022-09-13T04:31:53;22.00;74.20
73547;SHT30;61807;48.384;-4.386;2022-09-13T04:34:20;22.03;74.15
73547;SHT30;61807;48.384;-4.386;2022-09-13T04:36:47;22.03;74.10
73547;SHT30;61807;48.384;-4.386;2022-09-13T04:39:13;21.99;74.07
73547;SHT30;61807;48.384;-4.386;2022-09-13T04:41:40;22.03;74.10
73547;SHT30;61807;48.384;-4.386;2022-09-13T04:44:05;22.01;74.02
73547;SHT30;61807;48.384;-4.386;2022-09-13T04:46:30;22.01;73.97
73547;SHT30;61807;48.384;-4.386;2022-09-13T04:48:56;22.01;73.79
73547;SHT30;61807;48.384;-4.386;2022-09-13T04:51:21;22.03;73.71
73547;SHT30;61807;48.384;-4.386;2022-09-13T04:53:52;22.06;73.51
73547;SHT30;61807;48.384;-4.386;2022-09-13T04:56:22;22.10;73.32
73547;SHT30;61807;48.384;-4.386;2022-09-13T04:58:49;22.16;73.17
73547;SHT30;61807;48.384;-4.386;2022-09-13T05:01:15;22.17;72.96
73547;SHT30;61807;48.384;-4.386;2022-09-13T05:03:40;22.22;72.87
73547;SHT30;61807;48.384;-4.386;2022-09-13T05:06:12;22.27;72.70
73547;SHT30;61807;48.384;-4.386;2022-09-13T05:08:38;22.30;72.45
73547;SHT30;61807;48.384;-4.386;2022-09-13T05:11:05;22.33;72.36
73547;SHT30;61807;48.384;-4.386;2022-09-13T05:13:31;22.37;72.09
73547;SHT30;61807;48.384;-4.386;2022-09-13T05:15:59;22.41;72.06
73547;SHT30;61807;48.384;-4.386;2022-09-13T05:18:29;22.43;71.92
73547;SHT30;61807;48.384;-4.386;2022-09-13T05:20:56;22.45;71.90
73547;SHT30;61807;48.384;-4.386;2022-09-13T05:23:23;22.45;71.83
73547;SHT30;61807;48.384;-4.386;2022-09-13T05:26:07;22.48;71.73
73547;SHT30;61807;48.384;-4.386;2022-09-13T05:28:35;22.47;71.81
73547;SHT30;61807;48.384;-4.386;2022-09-13T05:31:03;22.47;71.91
73547;SHT30;61807;48.384;-4.386;2022-09-13T05:33:31;22.43;72.09
73547;SHT30;61807;48.384;-4.386;2022-09-13T05:35:57;22.40;72.03
73547;SHT30;61807;48.384;-4.386;2022-09-13T05:38:22;22.38;72.03
73547;SHT30;61807;48.384;-4.386;2022-09-13T05:40:53;22.38;71.99
73547;SHT30;61807;48.384;-4.386;2022-09-13T05:43:22;22.38;72.03
73547;SHT30;61807;48.384;-4.386;2022-09-13T05:45:47;22.38;72.04
73547;SHT30;61807;48.384;-4.386;2022-09-13T05:48:13;22.37;72.11
73547;SHT30;61807;48.384;-4.386;2022-09-13T05:50:38;22.37;72.27
73547;SHT30;61807;48.384;-4.386;2022-09-13T05:53:04;22.36;72.23
73547;SHT30;61807;48.384;-4.386;2022-09-13T05:55:30;22.36;72.41
73547;SHT30;61807;48.384;-4.386;2022-09-13T05:57:55;22.37;72.34
73547;SHT30;61807;48.384;-4.386;2022-09-13T06:00:20;22.36;72.48
73547;SHT30;61807;48.384;-4.386;2022-09-13T06:02:47;22.33;72.44
73547;SHT30;61807;48.384;-4.386;2022-09-13T06:05:13;22.33;72.49
73547;SHT30;61807;48.384;-4.386;2022-09-13T06:07:39;22.33;72.60
73547;SHT30;61807;48.384;-4.386;2022-09-13T06:10:09;22.31;72.66
73547;SHT30;61807;48.384;-4.386;2022-09-13T06:12:35;22.33;72.60
73547;SHT30;61807;48.384;-4.386;2022-09-13T06:15:01;22.34;72.67
73547;SHT30;61807;48.384;-4.386;2022-09-13T06:17:26;22.33;72.71
73547;SHT30;61807;48.384;-4.386;2022-09-13T06:19:51;22.34;72.72
73547;SHT30;61807;48.384;-4.386;2022-09-13T06:22:17;22.34;72.68
73547;SHT30;61807;48.384;-4.386;2022-09-13T06:24:42;22.36;72.74
73547;SHT30;61807;48.384;-4.386;2022-09-13T06:27:08;22.36;72.86
73547;SHT30;61807;48.384;-4.386;2022-09-13T06:29:35;22.37;72.83
73547;SHT30;61807;48.384;-4.386;2022-09-13T06:32:01;22.36;72.89
73547;SHT30;61807;48.384;-4.386;2022-09-13T06:34:26;22.37;72.89
73547;SHT30;61807;48.384;-4.386;2022-09-13T06:36:52;22.38;72.74
73547;SHT30;61807;48.384;-4.386;2022-09-13T06:39:18;22.41;72.64
73547;SHT30;61807;48.384;-4.386;2022-09-13T06:41:43;22.41;72.67
73547;SHT30;61807;48.384;-4.386;2022-09-13T06:44:08;22.45;72.57
73547;SHT30;61807;48.384;-4.386;2022-09-13T06:46:34;22.45;72.55
73547;SHT30;61807;48.384;-4.386;2022-09-13T06:49:02;22.45;72.63
73547;SHT30;61807;48.384;-4.386;2022-09-13T06:51:28;22.45;72.83
73547;SHT30;61807;48.384;-4.386;2022-09-13T06:53:54;22.44;72.76
73547;SHT30;61807;48.384;-4.386;2022-09-13T06:58:54;22.51;72.89
73547;SHT30;61807;48.384;-4.386;2022-09-13T07:01:23;22.52;72.70
73547;SHT30;61807;48.384;-4.386;2022-09-13T07:03:54;22.57;72.87
73547;SHT30;61807;48.384;-4.386;2022-09-13T07:06:20;22.61;72.70
73547;SHT30;61807;48.384;-4.386;2022-09-13T07:08:46;22.62;72.56
73547;SHT30;61807;48.384;-4.386;2022-09-13T07:11:14;22.72;72.74
73547;SHT30;61807;48.384;-4.386;2022-09-13T07:13:41;22.72;72.63
73547;SHT30;61807;48.384;-4.386;2022-09-13T07:16:08;22.75;72.52
73547;SHT30;61807;48.384;-4.386;2022-09-13T07:18:34;22.72;72.58
73547;SHT30;61807;48.384;-4.386;2022-09-13T07:21:02;22.72;72.85
73547;SHT30;61807;48.384;-4.386;2022-09-13T07:23:28;22.73;72.66
73547;SHT30;61807;48.384;-4.386;2022-09-13T07:25:58;22.75;72.47
73547;SHT30;61807;48.384;-4.386;2022-09-13T07:28:31;22.79;72.50
73547;SHT30;61807;48.384;-4.386;2022-09-13T07:31:07;22.75;72.49
73547;SHT30;61807;48.384;-4.386;2022-09-13T07:33:33;22.76;72.53
73547;SHT30;61807;48.384;-4.386;2022-09-13T07:36:00;22.75;72.71
73547;SHT30;61807;48.384;-4.386;2022-09-13T07:38:27;22.72;72.59
73547;SHT30;61807;48.384;-4.386;2022-09-13T07:40:56;22.72;72.90
73547;SHT30;61807;48.384;-4.386;2022-09-13T07:43:26;22.71;73.08
73547;SHT30;61807;48.384;-4.386;2022-09-13T07:46:02;22.69;73.20
73547;SHT30;61807;48.384;-4.386;2022-09-13T07:48:30;22.67;73.13
73547;SHT30;61807;48.384;-4.386;2022-09-13T07:53:31;22.68;72.84
73547;SHT30;61807;48.384;-4.386;2022-09-13T07:56:05;22.68;73.26
73547;SHT30;61807;48.384;-4.386;2022-09-13T07:58:32;22.69;73.39
73547;SHT30;61807;48.384;-4.386;2022-09-13T08:01:07;22.68;73.62
73547;SHT30;61807;48.384;-4.386;2022-09-13T08:03:34;22.68;73.59
73547;SHT30;61807;48.384;-4.386;2022-09-13T08:06:00;22.71;73.72
73547;SHT30;61807;48.384;-4.386;2022-09-13T08:08:27;22.68;73.66
73547;SHT30;61807;48.384;-4.386;2022-09-13T08:10:52;22.69;73.52
73547;SHT30;61807;48.384;-4.386;2022-09-13T08:13:18;22.71;73.61
73547;SHT30;61807;48.384;-4.386;2022-09-13T08:15:43;22.71;73.57
73547;SHT30;61807;48.384;-4.386;2022-09-13T08:18:09;22.75;73.63
73547;SHT30;61807;48.384;-4.386;2022-09-13T08:20:36;22.79;74.12
73547;SHT30;61807;48.384;-4.386;2022-09-13T08:23:02;22.82;73.98
73547;SHT30;61807;48.384;-4.386;2022-09-13T08:25:34;22.88;73.73
73547;SHT30;61807;48.384;-4.386;2022-09-13T08:28:20;22.92;73.87
73547;SHT30;61807;48.384;-4.386;2022-09-13T08:30:46;23.00;73.83
73547;SHT30;61807;48.384;-4.386;2022-09-13T08:33:13;23.06;73.50
73547;SHT30;61807;48.384;-4.386;2022-09-13T08:35:38;23.10;73.63
73547;SHT30;61807;48.384;-4.386;2022-09-13T08:38:05;23.19;73.64
73547;SHT30;61807;48.384;-4.386;2022-09-13T08:40:42;23.24;73.80
73547;SHT30;61807;48.384;-4.386;2022-09-13T08:45:49;23.42;73.50
73547;SHT30;61807;48.384;-4.386;2022-09-13T08:48:18;23.45;73.54
73547;SHT30;61807;48.384;-4.386;2022-09-13T08:50:47;23.49;73.30
73547;SHT30;61807;48.384;-4.386;2022-09-13T08:56:10;23.63;72.70
73547;SHT30;61807;48.384;-4.386;2022-09-13T09:01:37;23.73;72.34
73547;SHT30;61807;48.384;-4.386;2022-09-13T09:04:10;23.81;72.34
73547;SHT30;61807;48.384;-4.386;2022-09-13T09:06:36;23.87;71.85
73547;SHT30;61807;48.384;-4.386;2022-09-13T09:09:07;23.95;71.60
73547;SHT30;61807;48.384;-4.386;2022-09-13T09:11:41;24.00;71.27
73547;SHT30;61807;48.384;-4.386;2022-09-13T09:16:55;24.09;70.98
73547;SHT30;61807;48.384;-4.386;2022-09-13T09:19:28;24.18;70.95
73547;SHT30;61807;48.384;-4.386;2022-09-13T09:21:55;24.28;70.70
73547;SHT30;61807;48.384;-4.386;2022-09-13T09:24:24;24.37;70.17
73547;SHT30;61807;48.384;-4.386;2022-09-13T09:26:52;24.42;70.30
73547;SHT30;61807;48.384;-4.386;2022-09-13T09:29:21;24.45;69.99
73547;SHT30;61807;48.384;-4.386;2022-09-13T09:32:31;24.55;70.27
73547;SHT30;61807;48.384;-4.386;2022-09-13T09:35:17;24.63;70.10
73547;SHT30;61807;48.384;-4.386;2022-09-13T09:38:09;24.70;70.12
73547;SHT30;61807;48.384;-4.386;2022-09-13T09:40:38;24.79;69.82
73547;SHT30;61807;48.384;-4.386;2022-09-13T09:43:19;24.84;69.75
73547;SHT30;61807;48.384;-4.386;2022-09-13T09:45:48;24.88;69.69
73547;SHT30;61807;48.384;-4.386;2022-09-13T09:48:20;24.97;70.13
73547;SHT30;61807;48.384;-4.386;2022-09-13T09:50:49;25.04;69.91
73547;SHT30;61807;48.384;-4.386;2022-09-13T09:53:28;25.17;69.81
73547;SHT30;61807;48.384;-4.386;2022-09-13T09:56:03;25.20;69.60
73547;SHT30;61807;48.384;-4.386;2022-09-13T09:58:40;25.27;69.90
73547;SHT30;61807;48.384;-4.386;2022-09-13T10:01:22;25.35;69.69
73547;SHT30;61807;48.384;-4.386;2022-09-13T10:06:27;25.45;69.64
73547;SHT30;61807;48.384;-4.386;2022-09-13T10:08:55;25.48;69.99
73547;SHT30;61807;48.384;-4.386;2022-09-13T10:11:21;25.52;69.84
73547;SHT30;61807;48.384;-4.386;2022-09-13T10:13:58;25.52;69.89
73547;SHT30;61807;48.384;-4.386;2022-09-13T10:16:26;25.55;70.12
73547;SHT30;61807;48.384;-4.386;2022-09-13T10:18:53;25.51;70.04
73547;SHT30;61807;48.384;-4.386;2022-09-13T10:23:48;25.52;70.04
73547;SHT30;61807;48.384;-4.386;2022-09-13T10:26:22;25.52;69.92
73547;SHT30;61807;48.384;-4.386;2022-09-13T10:29:07;25.52;69.89
73547;SHT30;61807;48.384;-4.386;2022-09-13T10:31:46;25.55;69.86
73547;SHT30;61807;48.384;-4.386;2022-09-13T10:34:25;25.59;69.83
73547;SHT30;61807;48.384;-4.386;2022-09-13T10:36:59;25.62;69.64
73547;SHT30;61807;48.384;-4.386;2022-09-13T10:39:28;25.69;69.68
73547;SHT30;61807;48.384;-4.386;2022-09-13T10:42:08;25.76;68.82
73547;SHT30;61807;48.384;-4.386;2022-09-13T10:44:44;25.83;68.56
73547;SHT30;61807;48.384;-4.386;2022-09-13T10:47:13;25.94;68.52
73547;SHT30;61807;48.384;-4.386;2022-09-13T10:49:49;26.07;68.03
73547;SHT30;61807;48.384;-4.386;2022-09-13T10:52:42;26.19;67.73
73547;SHT30;61807;48.384;-4.386;2022-09-13T11:00:11;26.50;67.02
73547;SHT30;61807;48.384;-4.386;2022-09-13T11:05:49;26.60;66.57
73547;SHT30;61807;48.384;-4.386;2022-09-13T11:13:49;26.65;66.04
73547;SHT30;61807;48.384;-4.386;2022-09-13T11:48:40;28.42;62.64
73547;SHT30;61807;48.384;-4.386;2022-09-13T11:57:32;28.90;60.47
73547;SHT30;61807;48.384;-4.386;2022-09-13T12:00:44;28.99;60.17
73547;SHT30;61807;48.384;-4.386;2022-09-13T12:02:58;29.32;59.67
73547;SHT30;61807;48.384;-4.386;2022-09-13T12:05:33;29.61;59.32
73547;SHT30;61807;48.384;-4.386;2022-09-13T12:10:58;29.89;56.88
73547;SHT30;61807;48.384;-4.386;2022-09-13T12:13:34;29.86;57.12
73547;SHT30;61807;48.384;-4.386;2022-09-13T12:16:06;30.02;56.94
73547;SHT30;61807;48.384;-4.386;2022-09-13T12:18:45;30.37;56.15
73547;SHT30;61807;48.384;-4.386;2022-09-13T12:21:38;30.88;55.96
73547;SHT30;61807;48.384;-4.386;2022-09-13T12:24:15;31.14;55.34
73547;SHT30;61807;48.384;-4.386;2022-09-13T12:26:49;31.35;54.82
73547;SHT30;61807;48.384;-4.386;2022-09-13T12:32:17;31.80;53.34
73547;SHT30;61807;48.384;-4.386;2022-09-13T12:49:24;31.42;52.82
73547;SHT30;61807;48.384;-4.386;2022-09-13T13:00:16;30.95;53.19
73547;SHT30;61807;48.384;-4.386;2022-09-13T13:05:29;30.92;53.69
73547;SHT30;61807;48.384;-4.386;2022-09-13T13:08:01;31.26;52.64
73547;SHT30;61807;48.384;-4.386;2022-09-13T13:10:32;31.46;52.36
73547;SHT30;61807;48.384;-4.386;2022-09-13T13:13:12;31.40;52.94
73547;SHT30;61807;48.384;-4.386;2022-09-13T13:18:43;30.84;53.72
73547;SHT30;61807;48.384;-4.386;2022-09-13T13:21:25;30.60;53.69
73547;SHT30;61807;48.384;-4.386;2022-09-13T13:29:23;29.90;54.25
73547;SHT30;61807;48.384;-4.386;2022-09-13T13:34:45;29.69;55.43
73547;SHT30;61807;48.384;-4.386;2022-09-13T13:42:28;29.44;55.90
73547;SHT30;61807;48.384;-4.386;2022-09-13T13:44:57;29.39;56.01
73547;SHT30;61807;48.384;-4.386;2022-09-13T13:50:16;29.52;55.96
73547;SHT30;61807;48.384;-4.386;2022-09-13T13:52:55;29.55;56.22
73547;SHT30;61807;48.384;-4.386;2022-09-13T13:55:46;29.59;56.33
73547;SHT30;61807;48.384;-4.386;2022-09-13T14:00:49;29.78;55.98
73547;SHT30;61807;48.384;-4.386;2022-09-13T14:03:48;29.85;55.90
73547;SHT30;61807;48.384;-4.386;2022-09-13T14:06:27;29.88;55.16
73547;SHT30;61807;48.384;-4.386;2022-09-13T14:09:32;29.92;55.29
73547;SHT30;61807;48.384;-4.386;2022-09-13T14:15:06;30.75;54.19
73547;SHT30;61807;48.384;-4.386;2022-09-13T14:17:59;31.11;53.81
73547;SHT30;61807;48.384;-4.386;2022-09-13T14:20:26;31.59;53.39
73547;SHT30;61807;48.384;-4.386;2022-09-13T14:23:11;31.98;52.56
73547;SHT30;61807;48.384;-4.386;2022-09-13T14:25:37;32.11;52.37
73547;SHT30;61807;48.384;-4.386;2022-09-13T14:28:05;31.78;51.55
73547;SHT30;61807;48.384;-4.386;2022-09-13T14:30:35;31.33;52.94
73547;SHT30;61807;48.384;-4.386;2022-09-13T14:33:01;31.19;53.59
73547;SHT30;61807;48.384;-4.386;2022-09-13T14:35:34;31.16;53.59
73547;SHT30;61807;48.384;-4.386;2022-09-13T14:40:48;30.84;54.52
73547;SHT30;61807;48.384;-4.386;2022-09-13T14:43:18;30.63;54.94
73547;SHT30;61807;48.384;-4.386;2022-09-13T14:45:46;30.45;55.05
73547;SHT30;61807;48.384;-4.386;2022-09-13T14:48:23;30.34;55.24
73547;SHT30;61807;48.384;-4.386;2022-09-13T14:50:55;30.16;55.57
73547;SHT30;61807;48.384;-4.386;2022-09-13T14:53:24;30.00;56.01
73547;SHT30;61807;48.384;-4.386;2022-09-13T14:55:55;29.81;56.23
73547;SHT30;61807;48.384;-4.386;2022-09-13T14:58:36;29.65;56.92
73547;SHT30;61807;48.384;-4.386;2022-09-13T15:01:07;29.55;57.36
73547;SHT30;61807;48.384;-4.386;2022-09-13T15:03:33;29.47;57.49
73547;SHT30;61807;48.384;-4.386;2022-09-13T15:06:01;29.35;58.13
73547;SHT30;61807;48.384;-4.386;2022-09-13T15:11:03;29.18;58.76
73547;SHT30;61807;48.384;-4.386;2022-09-13T15:13:29;29.10;58.74
73547;SHT30;61807;48.384;-4.386;2022-09-13T15:15:55;29.07;58.59
73547;SHT30;61807;48.384;-4.386;2022-09-13T15:18:29;29.04;59.02
73547;SHT30;61807;48.384;-4.386;2022-09-13T15:21:12;29.03;59.18
73547;SHT30;61807;48.384;-4.386;2022-09-13T15:23:48;29.07;59.36
73547;SHT30;61807;48.384;-4.386;2022-09-13T15:26:22;29.08;59.26
73547;SHT30;61807;48.384;-4.386;2022-09-13T15:28:55;29.07;59.04
73547;SHT30;61807;48.384;-4.386;2022-09-13T15:31:34;29.02;59.45
73547;SHT30;61807;48.384;-4.386;2022-09-13T15:36:48;28.82;60.20
73547;SHT30;61807;48.384;-4.386;2022-09-13T15:39:19;28.74;59.65
73547;SHT30;61807;48.384;-4.386;2022-09-13T15:41:58;28.72;59.82
73547;SHT30;61807;48.384;-4.386;2022-09-13T15:44:27;28.63;60.57
73547;SHT30;61807;48.384;-4.386;2022-09-13T15:47:08;28.55;60.44
73547;SHT30;61807;48.384;-4.386;2022-09-13T15:49:34;28.44;61.09
73547;SHT30;61807;48.384;-4.386;2022-09-13T15:52:02;28.36;61.11
73547;SHT30;61807;48.384;-4.386;2022-09-13T15:54:37;28.24;61.35
73547;SHT30;61807;48.384;-4.386;2022-09-13T15:57:08;28.18;61.50
73547;SHT30;61807;48.384;-4.386;2022-09-13T15:59:34;28.09;61.73
73547;SHT30;61807;48.384;-4.386;2022-09-13T16:02:01;27.98;62.00
73547;SHT30;61807;48.384;-4.386;2022-09-13T16:04:36;27.93;62.35
73547;SHT30;61807;48.384;-4.386;2022-09-13T16:07:02;27.87;62.29
73547;SHT30;61807;48.384;-4.386;2022-09-13T16:09:27;27.81;62.28
73547;SHT30;61807;48.384;-4.386;2022-09-13T16:11:53;27.77;62.61
73547;SHT30;61807;48.384;-4.386;2022-09-13T16:14:18;27.73;62.80
73547;SHT30;61807;48.384;-4.386;2022-09-13T16:16:45;27.63;63.86
73547;SHT30;61807;48.384;-4.386;2022-09-13T16:19:21;27.51;63.46
73547;SHT30;61807;48.384;-4.386;2022-09-13T16:21:48;27.47;63.40
73547;SHT30;61807;48.384;-4.386;2022-09-13T16:24:13;27.42;63.51
73547;SHT30;61807;48.384;-4.386;2022-09-13T16:26:39;27.33;63.74
73547;SHT30;61807;48.384;-4.386;2022-09-13T16:29:05;27.25;63.93
73547;SHT30;61807;48.384;-4.386;2022-09-13T16:31:31;27.12;64.20
73547;SHT30;61807;48.384;-4.386;2022-09-13T16:33:56;26.99;64.59
73547;SHT30;61807;48.384;-4.386;2022-09-13T16:36:22;26.94;64.89
73547;SHT30;61807;48.384;-4.386;2022-09-13T16:38:47;26.88;64.99
73547;SHT30;61807;48.384;-4.386;2022-09-13T16:41:13;26.84;65.17
73547;SHT30;61807;48.384;-4.386;2022-09-13T16:43:38;26.79;65.31
73547;SHT30;61807;48.384;-4.386;2022-09-13T16:46:08;26.75;65.56
73547;SHT30;61807;48.384;-4.386;2022-09-13T16:48:34;26.72;65.64
73547;SHT30;61807;48.384;-4.386;2022-09-13T16:51:04;26.65;65.66
73547;SHT30;61807;48.384;-4.386;2022-09-13T16:53:34;26.58;65.97
73547;SHT30;61807;48.384;-4.386;2022-09-13T16:56:09;26.52;66.00
73547;SHT30;61807;48.384;-4.386;2022-09-13T16:58:36;26.51;66.12
73547;SHT30;61807;48.384;-4.386;2022-09-13T17:01:06;26.43;66.20
73547;SHT30;61807;48.384;-4.386;2022-09-13T17:03:35;26.36;66.35
73547;SHT30;61807;48.384;-4.386;2022-09-13T17:06:03;26.31;66.45
73547;SHT30;61807;48.384;-4.386;2022-09-13T17:08:30;26.24;66.72
73547;SHT30;61807;48.384;-4.386;2022-09-13T17:10:56;26.19;66.90
73547;SHT30;61807;48.384;-4.386;2022-09-13T17:13:22;26.16;66.97
73547;SHT30;61807;48.384;-4.386;2022-09-13T17:15:48;26.10;67.26
73547;SHT30;61807;48.384;-4.386;2022-09-13T17:18:14;26.07;67.30
73547;SHT30;61807;48.384;-4.386;2022-09-13T17:20:47;26.04;67.38
73547;SHT30;61807;48.384;-4.386;2022-09-13T17:23:14;26.03;67.56
73547;SHT30;61807;48.384;-4.386;2022-09-13T17:25:41;26.02;67.64
73547;SHT30;61807;48.384;-4.386;2022-09-13T17:28:10;25.99;67.63
73547;SHT30;61807;48.384;-4.386;2022-09-13T17:30:35;25.92;68.12
73547;SHT30;61807;48.384;-4.386;2022-09-13T17:33:01;25.82;68.07
73547;SHT30;61807;48.384;-4.386;2022-09-13T17:35:26;25.73;68.15
73547;SHT30;61807;48.384;-4.386;2022-09-13T17:37:53;25.69;68.27
73547;SHT30;61807;48.384;-4.386;2022-09-13T17:40:19;25.65;68.47
73547;SHT30;61807;48.384;-4.386;2022-09-13T17:42:44;25.57;68.62
73547;SHT30;61807;48.384;-4.386;2022-09-13T17:45:12;25.51;68.60
73547;SHT30;61807;48.384;-4.386;2022-09-13T17:47:37;25.42;68.76
73547;SHT30;61807;48.384;-4.386;2022-09-13T17:50:03;25.35;68.89
73547;SHT30;61807;48.384;-4.386;2022-09-13T17:52:29;25.30;68.96
73547;SHT30;61807;48.384;-4.386;2022-09-13T17:54:54;25.24;69.06
73547;SHT30;61807;48.384;-4.386;2022-09-13T17:57:20;25.21;69.15
73547;SHT30;61807;48.384;-4.386;2022-09-13T17:59:46;25.17;69.16
73547;SHT30;61807;48.384;-4.386;2022-09-13T18:02:13;25.13;69.25
73547;SHT30;61807;48.384;-4.386;2022-09-13T18:04:38;25.08;69.21
73547;SHT30;61807;48.384;-4.386;2022-09-13T18:07:04;25.03;69.27
73547;SHT30;61807;48.384;-4.386;2022-09-13T18:09:30;24.98;69.33
73547;SHT30;61807;48.384;-4.386;2022-09-13T18:11:55;24.93;69.45
73547;SHT30;61807;48.384;-4.386;2022-09-13T18:14:20;24.86;69.55
73547;SHT30;61807;48.384;-4.386;2022-09-13T18:16:47;24.86;69.63
73547;SHT30;61807;48.384;-4.386;2022-09-13T18:19:22;24.80;69.78
73547;SHT30;61807;48.384;-4.386;2022-09-13T18:21:48;24.76;69.88
73547;SHT30;61807;48.384;-4.386;2022-09-13T18:24:13;24.72;70.08
73547;SHT30;61807;48.384;-4.386;2022-09-13T18:26:39;24.64;70.23
73547;SHT30;61807;48.384;-4.386;2022-09-13T18:29:10;24.60;70.19
73547;SHT30;61807;48.384;-4.386;2022-09-13T18:31:36;24.59;70.37
73547;SHT30;61807;48.384;-4.386;2022-09-13T18:34:07;24.55;70.37
73547;SHT30;61807;48.384;-4.386;2022-09-13T18:36:35;24.52;70.45
73547;SHT30;61807;48.384;-4.386;2022-09-13T18:39:01;24.49;70.59
73547;SHT30;61807;48.384;-4.386;2022-09-13T18:41:34;24.46;70.78
73547;SHT30;61807;48.384;-4.386;2022-09-13T18:44:01;24.42;70.74
73547;SHT30;61807;48.384;-4.386;2022-09-13T18:46:28;24.39;70.87
73547;SHT30;61807;48.384;-4.386;2022-09-13T18:48:59;24.36;70.94